createdAt,value
2023-05-21T00:00:34.537Z,27.46
2023-05-21T00:01:36.669Z,27.79
2023-05-21T00:02:39.628Z,27.72
2023-05-21T00:03:42.951Z,27.63
2023-05-21T00:04:45.762Z,27.63
2023-05-21T00:05:47.814Z,27.24
2023-05-21T00:06:50.801Z,27.65
2023-05-21T00:07:55.003Z,28.09
2023-05-21T00:08:57.098Z,27.52
2023-05-21T00:09:59.045Z,28.12
2023-05-21T00:11:01.154Z,27.42
2023-05-21T00:12:03.116Z,27.85
2023-05-21T00:13:04.969Z,28.22
2023-05-21T00:14:06.801Z,28.22
2023-05-21T00:15:09.356Z,27.85
2023-05-21T00:16:11.399Z,27.82
2023-05-21T00:17:13.400Z,27.82
2023-05-21T00:18:16.323Z,27.43
2023-05-21T00:19:18.197Z,27.74
2023-05-21T00:20:20.192Z,27.51
2023-05-21T00:21:23.203Z,27.78
2023-05-21T00:22:25.095Z,27.81
2023-05-21T00:23:26.957Z,28.09
2023-05-21T00:24:29.445Z,27.58
2023-05-21T00:25:31.633Z,27.48
2023-05-21T00:26:33.482Z,27.32
2023-05-21T00:27:35.678Z,28.17
2023-05-21T00:28:37.520Z,28.14
2023-05-21T00:29:41.338Z,27.73
2023-05-21T00:30:44.377Z,27.72
2023-05-21T00:31:46.267Z,27.34
2023-05-21T00:32:48.149Z,27.63
2023-05-21T00:33:50.786Z,27.51
2023-05-21T00:34:52.628Z,28.06
2023-05-21T00:35:57.668Z,27.95
2023-05-21T00:36:59.509Z,27.55
2023-05-21T00:38:01.598Z,27.74
2023-05-21T00:39:04.450Z,28.14
2023-05-21T00:40:11.592Z,28.01
2023-05-21T00:41:13.784Z,27.70
2023-05-21T00:42:18.253Z,27.65
2023-05-21T00:43:20.491Z,27.96
2023-05-21T00:44:23.795Z,28.09
2023-05-21T00:45:25.786Z,27.44
2023-05-21T00:46:30.493Z,27.69
2023-05-21T00:47:32.802Z,28.17
2023-05-21T00:48:35.231Z,27.55
2023-05-21T00:49:37.130Z,27.55
2023-05-21T00:50:42.325Z,27.90
2023-05-21T00:51:45.327Z,27.53
2023-05-21T00:52:48.902Z,28.39
2023-05-21T00:53:52.974Z,27.82
2023-05-21T00:54:55.561Z,27.80
2023-05-21T00:55:57.850Z,27.57
2023-05-21T00:57:01.602Z,28.22
2023-05-21T00:58:04.644Z,27.60
2023-05-21T00:59:06.514Z,27.72
2023-05-21T01:00:10.851Z,27.83
2023-05-21T01:01:14.104Z,27.46
2023-05-21T01:02:18.227Z,27.59
2023-05-21T01:03:20.572Z,28.18
2023-05-21T01:04:23.935Z,27.84
2023-05-21T01:05:25.959Z,28.14
2023-05-21T01:06:34.650Z,28.07
2023-05-21T01:07:39.927Z,27.91
2023-05-21T01:08:42.247Z,27.85
2023-05-21T01:09:44.246Z,27.56
2023-05-21T01:10:46.312Z,28.25
2023-05-21T01:11:51.291Z,27.78
2023-05-21T01:12:54.643Z,27.95
2023-05-21T01:13:57.671Z,27.53
2023-05-21T01:15:04.150Z,28.21
2023-05-21T01:16:09.488Z,28.34
2023-05-21T01:17:13.076Z,27.97
2023-05-21T01:18:16.094Z,28.03
2023-05-21T01:19:23.847Z,28.10
2023-05-21T01:20:26.759Z,28.04
2023-05-21T01:21:30.446Z,28.25
2023-05-21T01:22:35.340Z,27.99
2023-05-21T01:23:37.283Z,28.48
2023-05-21T01:24:39.355Z,28.04
2023-05-21T01:25:42.349Z,27.71
2023-05-21T01:26:46.773Z,27.92
2023-05-21T01:27:49.037Z,28.35
2023-05-21T01:28:51.699Z,28.43
2023-05-21T01:29:53.555Z,27.87
2023-05-21T01:30:58.753Z,28.38
2023-05-21T01:32:31.552Z,27.76
2023-05-21T01:33:41.931Z,27.49
2023-05-21T01:35:01.324Z,27.84
2023-05-21T01:36:06.056Z,28.23
2023-05-21T01:37:17.552Z,28.17
2023-05-21T01:38:41.399Z,27.68
2023-05-21T01:39:48.161Z,28.28
2023-05-21T01:41:03.647Z,27.95
2023-05-21T01:42:10.313Z,27.60
2023-05-21T01:43:13.170Z,28.15
2023-05-21T01:44:18.956Z,28.07
2023-05-21T01:45:23.658Z,28.01
2023-05-21T01:46:29.129Z,28.21
2023-05-21T01:47:32.132Z,28.15
2023-05-21T01:48:35.184Z,28.12
2023-05-21T01:49:37.717Z,28.35
2023-05-21T01:50:41.713Z,28.47
2023-05-21T01:51:44.073Z,28.08
2023-05-21T01:52:51.133Z,27.96
2023-05-21T01:53:52.963Z,28.10
2023-05-21T01:54:57.340Z,28.19
2023-05-21T01:55:59.482Z,27.83
2023-05-21T01:57:01.751Z,28.15
2023-05-21T01:58:03.614Z,28.67
2023-05-21T01:59:05.954Z,27.88
2023-05-21T02:00:09.005Z,28.55
2023-05-21T02:01:17.169Z,28.12
2023-05-21T02:02:19.463Z,27.92
2023-05-21T02:03:22.018Z,27.89
2023-05-21T02:04:24.115Z,28.22
2023-05-21T02:05:26.239Z,28.52
2023-05-21T02:06:28.129Z,28.00
2023-05-21T02:07:32.663Z,27.89
2023-05-21T02:08:36.188Z,28.64
2023-05-21T02:09:38.181Z,28.60
2023-05-21T02:10:40.111Z,28.83
2023-05-21T02:11:42.008Z,28.06
2023-05-21T02:12:43.884Z,28.79
2023-05-21T02:13:46.283Z,28.03
2023-05-21T02:14:50.480Z,28.72
2023-05-21T02:15:55.159Z,28.88
2023-05-21T02:16:58.305Z,28.19
2023-05-21T02:18:00.652Z,28.81
2023-05-21T02:19:04.781Z,28.34
2023-05-21T02:20:16.567Z,28.15
2023-05-21T02:21:18.501Z,28.77
2023-05-21T02:22:20.297Z,27.91
2023-05-21T02:23:22.198Z,28.51
2023-05-21T02:24:24.521Z,28.46
2023-05-21T02:25:26.397Z,28.50
2023-05-21T02:26:29.042Z,27.98
2023-05-21T02:27:32.562Z,27.97
2023-05-21T02:28:36.167Z,28.50
2023-05-21T02:29:38.048Z,28.64
2023-05-21T02:30:39.896Z,28.78
2023-05-21T02:31:42.049Z,28.72
2023-05-21T02:32:45.085Z,28.32
2023-05-21T02:33:47.114Z,28.06
2023-05-21T02:34:48.967Z,28.72
2023-05-21T02:35:51.062Z,28.71
2023-05-21T02:36:52.862Z,28.62
2023-05-21T02:37:59.008Z,28.16
2023-05-21T02:39:01.768Z,28.87
2023-05-21T02:40:09.751Z,28.77
2023-05-21T02:41:11.987Z,28.13
2023-05-21T02:42:14.278Z,28.15
2023-05-21T02:43:16.388Z,28.37
2023-05-21T02:44:19.408Z,28.90
2023-05-21T02:45:21.396Z,28.48
2023-05-21T02:46:23.366Z,28.58
2023-05-21T02:47:27.121Z,28.46
2023-05-21T02:48:29.015Z,28.79
2023-05-21T02:49:30.884Z,28.83
2023-05-21T02:50:32.719Z,28.21
2023-05-21T02:51:34.848Z,28.89
2023-05-21T02:52:36.711Z,28.29
2023-05-21T02:53:39.328Z,29.04
2023-05-21T02:54:41.220Z,28.39
2023-05-21T02:55:43.707Z,28.58
2023-05-21T02:56:45.667Z,29.00
2023-05-21T02:57:48.156Z,28.52
2023-05-21T02:58:50.103Z,28.71
2023-05-21T02:59:51.939Z,28.51
2023-05-21T03:00:53.966Z,28.70
2023-05-21T03:01:56.126Z,28.32
2023-05-21T03:02:58.092Z,28.18
2023-05-21T03:04:00.095Z,28.10
2023-05-21T03:05:02.869Z,28.40
2023-05-21T03:06:04.828Z,28.93
2023-05-21T03:07:06.669Z,28.30
2023-05-21T03:08:08.553Z,28.77
2023-05-21T03:09:11.014Z,28.88
2023-05-21T03:10:12.917Z,29.05
2023-05-21T03:11:14.984Z,28.25
2023-05-21T03:12:16.879Z,28.50
2023-05-21T03:13:18.852Z,28.42
2023-05-21T03:14:20.736Z,28.91
2023-05-21T03:15:24.259Z,28.76
2023-05-21T03:16:26.336Z,28.70
2023-05-21T03:17:28.266Z,28.33
2023-05-21T03:18:30.107Z,28.92
2023-05-21T03:19:36.455Z,28.36
2023-05-21T03:20:44.529Z,28.77
2023-05-21T03:21:46.846Z,28.68
2023-05-21T03:22:49.969Z,28.66
2023-05-21T03:23:53.161Z,28.90
2023-05-21T03:24:55.149Z,28.34
2023-05-21T03:25:57.086Z,29.18
2023-05-21T03:27:03.193Z,28.39
2023-05-21T03:28:05.185Z,28.56
2023-05-21T03:29:21.993Z,29.01
2023-05-21T03:30:23.869Z,29.12
2023-05-21T03:31:48.464Z,28.97
2023-05-21T03:32:51.459Z,28.88
2023-05-21T03:33:53.977Z,28.66
2023-05-21T03:35:02.633Z,28.62
2023-05-21T03:36:04.779Z,28.27
2023-05-21T03:37:11.103Z,28.36
2023-05-21T03:38:13.125Z,28.29
2023-05-21T03:39:15.537Z,28.53
2023-05-21T03:40:17.533Z,29.01
2023-05-21T03:41:19.657Z,29.09
2023-05-21T03:42:25.830Z,29.08
2023-05-21T03:43:29.841Z,28.71
2023-05-21T03:44:32.627Z,29.02
2023-05-21T03:46:06.972Z,29.02
2023-05-21T03:47:15.010Z,29.06
2023-05-21T03:48:18.144Z,28.35
2023-05-21T03:49:20.928Z,28.87
2023-05-21T03:50:25.232Z,28.61
2023-05-21T03:51:27.663Z,28.52
2023-05-21T03:52:29.818Z,28.76
2023-05-21T03:53:33.984Z,28.65
2023-05-21T03:54:36.093Z,28.65
2023-05-21T03:55:41.489Z,29.35
2023-05-21T03:56:43.344Z,28.90
2023-05-21T03:57:45.279Z,29.22
2023-05-21T03:58:47.360Z,28.61
2023-05-21T03:59:49.407Z,28.72
2023-05-21T04:00:51.366Z,28.55
2023-05-21T04:01:53.193Z,28.65
2023-05-21T04:02:55.390Z,29.33
2023-05-21T04:03:57.517Z,28.81
2023-05-21T04:05:00.666Z,28.67
2023-05-21T04:06:03.843Z,29.27
2023-05-21T04:07:05.715Z,29.13
2023-05-21T04:08:07.558Z,28.87
2023-05-21T04:09:09.442Z,29.23
2023-05-21T04:10:11.264Z,28.68
2023-05-21T04:11:13.126Z,29.21
2023-05-21T04:12:15.036Z,28.99
2023-05-21T04:13:16.893Z,28.69
2023-05-21T04:14:18.813Z,28.80
2023-05-21T04:15:20.792Z,29.32
2023-05-21T04:16:24.663Z,29.61
2023-05-21T04:17:28.636Z,28.95
2023-05-21T04:18:31.106Z,28.81
2023-05-21T04:19:33.310Z,29.51
2023-05-21T04:20:35.969Z,29.37
2023-05-21T04:21:38.016Z,29.67
2023-05-21T04:22:40.714Z,29.08
2023-05-21T04:23:43.871Z,29.43
2023-05-21T04:24:55.975Z,29.76
2023-05-21T04:26:04.854Z,29.01
2023-05-21T04:27:07.004Z,29.35
2023-05-21T04:28:08.909Z,29.79
2023-05-21T04:29:11.744Z,29.47
2023-05-21T04:30:14.070Z,29.45
2023-05-21T04:31:18.431Z,28.88
2023-05-21T04:32:20.518Z,29.45
2023-05-21T04:33:23.082Z,28.97
2023-05-21T04:34:24.938Z,28.95
2023-05-21T04:35:27.280Z,29.45
2023-05-21T04:36:29.098Z,29.62
2023-05-21T04:37:35.215Z,29.02
2023-05-21T04:38:38.355Z,29.58
2023-05-21T04:39:41.211Z,28.93
2023-05-21T04:40:43.603Z,29.52
2023-05-21T04:41:46.678Z,29.29
2023-05-21T04:42:50.837Z,28.91
2023-05-21T04:43:55.429Z,29.10
2023-05-21T04:45:00.933Z,28.91
2023-05-21T04:46:06.079Z,29.68
2023-05-21T04:47:10.451Z,29.26
2023-05-21T04:48:12.755Z,29.35
2023-05-21T04:49:15.430Z,29.50
2023-05-21T04:50:17.633Z,29.19
2023-05-21T04:51:19.474Z,29.14
2023-05-21T04:52:21.296Z,29.72
2023-05-21T04:53:24.005Z,29.34
2023-05-21T04:54:26.181Z,28.83
2023-05-21T04:55:28.996Z,29.58
2023-05-21T04:56:32.047Z,29.48
2023-05-21T04:57:33.960Z,29.56
2023-05-21T04:58:35.887Z,28.87
2023-05-21T04:59:37.982Z,28.83
2023-05-21T05:00:40.345Z,29.25
2023-05-21T05:01:44.038Z,29.13
2023-05-21T05:02:46.433Z,28.82
2023-05-21T05:03:48.486Z,29.14
2023-05-21T05:04:50.425Z,28.97
2023-05-21T05:05:52.851Z,28.67
2023-05-21T05:06:55.855Z,29.43
2023-05-21T05:07:58.317Z,29.29
2023-05-21T05:09:00.749Z,29.19
2023-05-21T05:10:02.698Z,29.41
2023-05-21T05:11:06.482Z,28.84
2023-05-21T05:12:08.567Z,29.08
2023-05-21T05:13:10.677Z,28.79
2023-05-21T05:14:12.709Z,29.39
2023-05-21T05:15:17.037Z,28.98
2023-05-21T05:16:25.784Z,29.19
2023-05-21T05:17:30.852Z,28.66
2023-05-21T05:18:34.228Z,29.29
2023-05-21T05:19:36.718Z,28.60
2023-05-21T05:20:38.661Z,28.74
2023-05-21T05:21:40.521Z,28.83
2023-05-21T05:22:42.461Z,29.38
2023-05-21T05:23:44.447Z,28.75
2023-05-21T05:24:46.353Z,28.51
2023-05-21T05:25:48.969Z,29.13
2023-05-21T05:26:50.949Z,28.53
2023-05-21T05:27:52.891Z,29.19
2023-05-21T05:28:54.759Z,29.11
2023-05-21T05:29:56.574Z,28.75
2023-05-21T05:30:58.554Z,29.04
2023-05-21T05:32:01.574Z,29.34
2023-05-21T05:33:03.526Z,28.74
2023-05-21T05:34:05.753Z,29.40
2023-05-21T05:35:08.176Z,28.78
2023-05-21T05:36:10.080Z,29.35
2023-05-21T05:37:12.430Z,29.17
2023-05-21T05:38:14.422Z,28.77
2023-05-21T05:39:17.232Z,29.26
2023-05-21T05:40:20.522Z,28.92
2023-05-21T05:41:22.818Z,29.26
2023-05-21T05:42:25.534Z,28.71
2023-05-21T05:43:28.072Z,28.86
2023-05-21T05:44:31.333Z,29.55
2023-05-21T05:45:34.172Z,29.01
2023-05-21T05:46:37.960Z,29.04
2023-05-21T05:47:40.176Z,28.93
2023-05-21T05:48:42.024Z,28.72
2023-05-21T05:49:44.218Z,29.14
2023-05-21T05:50:46.654Z,29.61
2023-05-21T05:51:49.203Z,28.88
2023-05-21T05:52:51.579Z,29.02
2023-05-21T05:53:53.404Z,29.53
2023-05-21T05:54:55.490Z,28.97
2023-05-21T05:55:57.333Z,28.96
2023-05-21T05:56:59.162Z,29.80
2023-05-21T05:58:02.209Z,29.73
2023-05-21T05:59:04.233Z,29.39
2023-05-21T06:00:10.635Z,29.49
2023-05-21T06:01:19.117Z,29.00
2023-05-21T06:02:21.117Z,29.13
2023-05-21T06:03:23.110Z,29.18
2023-05-21T06:04:30.136Z,29.49
2023-05-21T06:05:32.552Z,29.33
2023-05-21T06:06:34.908Z,29.13
2023-05-21T06:07:40.714Z,29.49
2023-05-21T06:08:42.697Z,29.25
2023-05-21T06:09:44.597Z,30.03
2023-05-21T06:10:46.711Z,29.56
2023-05-21T06:11:50.050Z,29.23
2023-05-21T06:12:51.988Z,29.97
2023-05-21T06:13:53.906Z,29.58
2023-05-21T06:14:56.744Z,29.95
2023-05-21T06:15:58.624Z,29.13
2023-05-21T06:17:00.513Z,29.89
2023-05-21T06:18:02.968Z,29.43
2023-05-21T06:19:05.000Z,29.82
2023-05-21T06:20:09.245Z,29.26
2023-05-21T06:21:11.536Z,29.42
2023-05-21T06:22:13.985Z,28.81
2023-05-21T06:23:16.096Z,29.23
2023-05-21T06:24:21.228Z,28.90
2023-05-21T06:25:23.206Z,29.47
2023-05-21T06:26:25.083Z,29.35
2023-05-21T06:27:27.689Z,29.56
2023-05-21T06:28:29.583Z,29.50
2023-05-21T06:29:31.479Z,29.05
2023-05-21T06:30:35.515Z,29.29
2023-05-21T06:31:37.431Z,29.57
2023-05-21T06:32:39.549Z,28.56
2023-05-21T06:33:41.577Z,29.29
2023-05-21T06:34:43.493Z,29.09
2023-05-21T06:35:45.410Z,29.19
2023-05-21T06:36:48.409Z,28.73
2023-05-21T06:37:50.460Z,29.32
2023-05-21T06:38:52.285Z,28.34
2023-05-21T06:39:54.286Z,28.42
2023-05-21T06:40:58.502Z,28.67
2023-05-21T06:42:29.582Z,28.31
2023-05-21T06:43:51.560Z,28.33
2023-05-21T06:45:12.346Z,28.43
2023-05-21T06:46:18.123Z,28.65
2023-05-21T06:47:21.026Z,28.47
2023-05-21T06:48:23.180Z,28.01
2023-05-21T06:49:26.604Z,28.49
2023-05-21T06:50:28.518Z,28.29
2023-05-21T06:51:31.271Z,27.98
2023-05-21T06:52:33.279Z,28.66
2023-05-21T06:53:36.848Z,28.20
2023-05-21T06:54:38.774Z,28.30
2023-05-21T06:55:45.005Z,28.47
2023-05-21T06:57:09.852Z,28.05
2023-05-21T06:58:12.044Z,28.32
2023-05-21T06:59:14.077Z,28.02
2023-05-21T07:00:16.083Z,28.22
2023-05-21T07:01:18.186Z,28.04
2023-05-21T07:02:20.934Z,28.04
2023-05-21T07:03:23.353Z,27.74
2023-05-21T07:04:25.395Z,28.08
2023-05-21T07:05:27.231Z,27.66
2023-05-21T07:06:29.936Z,28.36
2023-05-21T07:07:34.886Z,28.27
2023-05-21T07:08:36.814Z,27.87
2023-05-21T07:09:38.945Z,27.47
2023-05-21T07:10:42.584Z,28.03
2023-05-21T07:11:44.622Z,27.82
2023-05-21T07:12:48.000Z,27.81
2023-05-21T07:13:50.412Z,27.62
2023-05-21T07:14:52.353Z,28.21
2023-05-21T07:15:54.199Z,27.69
2023-05-21T07:16:56.196Z,27.66
2023-05-21T07:17:58.164Z,27.61
2023-05-21T07:19:00.055Z,27.73
2023-05-21T07:20:01.944Z,27.46
2023-05-21T07:21:04.672Z,27.97
2023-05-21T07:22:06.796Z,27.69
2023-05-21T07:23:08.706Z,28.16
2023-05-21T07:24:10.683Z,27.49
2023-05-21T07:25:14.899Z,28.02
2023-05-21T07:26:16.853Z,27.73
2023-05-21T07:28:26.825Z,27.66
2023-05-21T07:29:29.450Z,27.51
2023-05-21T07:30:31.284Z,27.50
2023-05-21T07:31:33.542Z,27.60
2023-05-21T07:32:36.103Z,27.49
2023-05-21T07:33:37.967Z,27.47
2023-05-21T07:34:39.910Z,28.00
2023-05-21T07:35:41.844Z,27.79
2023-05-21T07:36:43.886Z,27.40
2023-05-21T07:37:47.957Z,27.38
2023-05-21T07:38:49.889Z,27.71
2023-05-21T07:39:52.210Z,27.75
2023-05-21T07:40:54.614Z,27.39
2023-05-21T07:41:56.546Z,27.54
2023-05-21T07:42:58.489Z,27.65
2023-05-21T07:44:04.207Z,28.06
2023-05-21T07:45:09.241Z,27.84
2023-05-21T07:46:15.814Z,28.02
2023-05-21T07:47:18.974Z,28.00
2023-05-21T07:48:20.835Z,27.73
2023-05-21T07:49:30.255Z,27.38
2023-05-21T07:50:33.219Z,27.53
2023-05-21T07:51:35.214Z,27.86
2023-05-21T07:52:37.903Z,27.58
2023-05-21T07:53:40.778Z,27.46
2023-05-21T07:54:45.926Z,27.64
2023-05-21T07:55:48.184Z,27.88
2023-05-21T07:56:53.311Z,27.85
2023-05-21T07:58:20.263Z,28.11
2023-05-21T07:59:23.242Z,28.15
2023-05-21T08:00:25.205Z,27.65
2023-05-21T08:01:30.849Z,27.54
2023-05-21T08:02:33.401Z,27.61
2023-05-21T08:03:37.278Z,27.58
2023-05-21T08:04:41.177Z,27.60
2023-05-21T08:05:50.835Z,27.59
2023-05-21T08:06:53.810Z,27.88
2023-05-21T08:07:55.682Z,27.64
2023-05-21T08:08:58.012Z,28.08
2023-05-21T08:10:00.988Z,27.68
2023-05-21T08:11:04.370Z,27.88
2023-05-21T08:12:06.783Z,27.44
2023-05-21T08:13:11.740Z,27.96
2023-05-21T08:14:14.129Z,27.63
2023-05-21T08:15:16.239Z,27.33
2023-05-21T08:16:21.481Z,27.46
2023-05-21T08:17:23.435Z,27.32
2023-05-21T08:18:25.496Z,27.60
2023-05-21T08:19:30.254Z,27.35
2023-05-21T08:20:33.500Z,27.57
2023-05-21T08:21:36.838Z,27.91
2023-05-21T08:22:38.910Z,27.52
2023-05-21T08:23:41.056Z,27.42
2023-05-21T08:24:42.930Z,27.84
2023-05-21T08:25:45.216Z,27.44
2023-05-21T08:26:47.565Z,27.39
2023-05-21T08:27:51.559Z,27.60
2023-05-21T08:28:54.632Z,27.57
2023-05-21T08:29:56.691Z,27.31
2023-05-21T08:30:58.643Z,27.54
2023-05-21T08:32:01.028Z,27.28
2023-05-21T08:33:03.025Z,27.75
2023-05-21T08:34:07.438Z,27.78
2023-05-21T08:35:26.074Z,27.78
2023-05-21T08:36:36.710Z,27.68
2023-05-21T08:37:43.741Z,27.12
2023-05-21T08:38:53.755Z,27.50
2023-05-21T08:40:04.502Z,27.74
2023-05-21T08:41:13.248Z,27.04
2023-05-21T08:42:47.945Z,27.06
2023-05-21T08:43:59.625Z,27.17
2023-05-21T08:45:05.547Z,27.51
2023-05-21T08:46:09.801Z,27.55
2023-05-21T08:47:18.921Z,27.74
2023-05-21T08:48:23.176Z,27.70
2023-05-21T08:49:27.512Z,27.27
2023-05-21T08:50:31.887Z,27.66
2023-05-21T08:51:38.860Z,27.18
2023-05-21T08:52:41.630Z,27.03
2023-05-21T08:53:45.838Z,27.57
2023-05-21T08:54:53.137Z,27.02
2023-05-21T08:55:57.249Z,27.45
2023-05-21T08:57:04.879Z,27.10
2023-05-21T08:58:06.784Z,27.50
2023-05-21T08:59:09.016Z,27.12
2023-05-21T09:00:12.590Z,27.67
2023-05-21T09:01:14.938Z,27.53
2023-05-21T09:02:20.145Z,27.11
2023-05-21T09:03:23.272Z,27.69
2023-05-21T09:04:27.746Z,27.69
2023-05-21T09:05:31.334Z,27.36
2023-05-21T09:06:33.978Z,27.14
2023-05-21T09:08:01.135Z,27.07
2023-05-21T09:09:42.045Z,27.42
2023-05-21T09:10:50.464Z,26.96
2023-05-21T09:11:52.519Z,26.95
2023-05-21T09:12:54.400Z,27.58
2023-05-21T09:13:58.418Z,27.51
2023-05-21T09:15:27.326Z,27.12
2023-05-21T09:16:30.661Z,27.43
2023-05-21T09:17:32.845Z,27.05
2023-05-21T09:18:47.087Z,27.03
2023-05-21T09:20:26.613Z,26.92
2023-05-21T09:21:33.366Z,26.83
2023-05-21T09:22:50.717Z,27.22
2023-05-21T09:23:59.767Z,27.22
2023-05-21T09:25:04.984Z,27.50
2023-05-21T09:26:12.901Z,27.02
2023-05-21T09:27:18.358Z,27.40
2023-05-21T09:28:20.646Z,27.42
2023-05-21T09:29:22.461Z,27.23
2023-05-21T09:30:34.934Z,27.44
2023-05-21T09:31:43.878Z,27.52
2023-05-21T09:32:54.215Z,27.34
2023-05-21T09:33:56.287Z,27.10
2023-05-21T09:35:13.490Z,27.08
2023-05-21T09:36:15.620Z,27.46
2023-05-21T09:37:27.034Z,27.23
2023-05-21T09:38:30.387Z,27.02
2023-05-21T09:39:32.325Z,26.83
2023-05-21T09:40:43.342Z,26.98
2023-05-21T09:41:45.465Z,26.96
2023-05-21T09:42:50.179Z,27.23
2023-05-21T09:43:52.230Z,27.35
2023-05-21T09:44:55.237Z,26.88
2023-05-21T09:46:00.472Z,27.22
2023-05-21T09:47:05.918Z,27.40
2023-05-21T09:48:07.794Z,26.77
2023-05-21T09:49:26.545Z,27.23
2023-05-21T09:50:28.890Z,27.34
2023-05-21T09:51:32.124Z,27.15
2023-05-21T09:52:36.875Z,27.17
2023-05-21T09:53:57.875Z,27.61
2023-05-21T09:54:59.852Z,26.83
2023-05-21T09:56:03.738Z,26.99
2023-05-21T09:57:05.910Z,27.52
2023-05-21T09:58:08.987Z,27.20
2023-05-21T09:59:11.025Z,27.46
2023-05-21T10:00:28.353Z,27.66
2023-05-21T10:01:37.566Z,27.29
2023-05-21T10:02:44.747Z,27.56
2023-05-21T10:03:52.117Z,27.00
2023-05-21T10:04:54.762Z,27.57
2023-05-21T10:05:58.677Z,27.49
2023-05-21T10:07:00.997Z,26.89
2023-05-21T10:08:04.811Z,27.08
2023-05-21T10:09:10.714Z,27.03
2023-05-21T10:10:17.580Z,27.14
2023-05-21T10:11:22.899Z,27.40
2023-05-21T10:12:25.594Z,27.01
2023-05-21T10:13:28.580Z,26.78
2023-05-21T10:14:33.247Z,26.77
2023-05-21T10:15:41.269Z,26.78
2023-05-21T10:16:44.571Z,27.30
2023-05-21T10:17:48.637Z,26.71
2023-05-21T10:18:51.335Z,26.78
2023-05-21T10:19:56.018Z,27.11
2023-05-21T10:20:59.048Z,27.35
2023-05-21T10:22:01.774Z,26.78
2023-05-21T10:23:04.349Z,27.40
2023-05-21T10:24:07.505Z,26.96
2023-05-21T10:25:10.348Z,26.74
2023-05-21T10:26:13.077Z,27.01
2023-05-21T10:27:15.150Z,27.06
2023-05-21T10:28:21.107Z,26.68
2023-05-21T10:29:23.495Z,27.02
2023-05-21T10:30:25.705Z,26.56
2023-05-21T10:31:28.628Z,27.10
2023-05-21T10:32:31.853Z,26.95
2023-05-21T10:33:35.885Z,26.76
2023-05-21T10:34:38.404Z,27.15
2023-05-21T10:35:40.816Z,27.14
2023-05-21T10:36:44.505Z,27.17
2023-05-21T10:37:46.738Z,26.97
2023-05-21T10:38:48.765Z,27.00
2023-05-21T10:39:50.735Z,27.13
2023-05-21T10:40:54.107Z,26.87
2023-05-21T10:42:33.250Z,27.08
2023-05-21T10:43:48.668Z,26.60
2023-05-21T10:45:18.336Z,26.54
2023-05-21T10:46:46.269Z,26.84
2023-05-21T10:48:13.959Z,26.54
2023-05-21T10:49:30.760Z,26.94
2023-05-21T10:50:45.207Z,27.01
2023-05-21T10:52:20.874Z,26.95
2023-05-21T10:53:54.678Z,26.92
2023-05-21T10:55:17.579Z,26.33
2023-05-21T10:56:29.274Z,27.14
2023-05-21T10:57:46.747Z,26.40
2023-05-21T10:59:01.361Z,26.84
2023-05-21T11:00:06.202Z,26.69
2023-05-21T11:01:08.422Z,26.85
2023-05-21T11:02:13.087Z,27.00
2023-05-21T11:03:15.683Z,26.86
2023-05-21T11:04:22.534Z,26.97
2023-05-21T11:05:52.777Z,27.22
2023-05-21T11:06:56.378Z,26.74
2023-05-21T11:07:58.749Z,27.08
2023-05-21T11:09:14.016Z,26.53
2023-05-21T11:10:35.689Z,26.94
2023-05-21T11:11:52.305Z,26.48
2023-05-21T11:13:13.146Z,26.76
2023-05-21T11:15:04.449Z,27.07
2023-05-21T11:16:08.003Z,26.27
2023-05-21T11:17:13.652Z,26.79
2023-05-21T11:18:15.973Z,26.33
2023-05-21T11:19:19.071Z,26.51
2023-05-21T11:20:22.830Z,26.68
2023-05-21T11:21:28.584Z,26.79
2023-05-21T11:22:30.492Z,27.02
2023-05-21T11:23:59.010Z,26.39
2023-05-21T11:25:02.313Z,26.82
2023-05-21T11:26:06.742Z,26.80
2023-05-21T11:27:08.946Z,26.82
2023-05-21T11:28:10.930Z,26.42
2023-05-21T11:29:12.972Z,26.77
2023-05-21T11:30:17.249Z,26.25
2023-05-21T11:31:30.506Z,26.44
2023-05-21T11:32:32.477Z,26.51
2023-05-21T11:33:34.320Z,26.45
2023-05-21T11:34:47.013Z,26.26
2023-05-21T11:35:54.712Z,26.73
2023-05-21T11:37:18.438Z,26.42
2023-05-21T11:38:21.041Z,26.00
2023-05-21T11:39:25.991Z,26.60
2023-05-21T11:40:30.202Z,26.78
2023-05-21T11:42:01.581Z,26.74
2023-05-21T11:43:04.426Z,26.22
2023-05-21T11:44:08.938Z,26.74
2023-05-21T11:45:11.157Z,26.12
2023-05-21T11:46:14.386Z,26.66
2023-05-21T11:47:19.884Z,26.40
2023-05-21T11:48:27.293Z,26.72
2023-05-21T11:49:31.265Z,26.48
2023-05-21T11:50:34.839Z,26.44
2023-05-21T11:51:36.984Z,26.38
2023-05-21T11:52:39.509Z,26.45
2023-05-21T11:53:44.329Z,26.39
2023-05-21T11:54:50.718Z,26.36
2023-05-21T11:55:57.328Z,26.17
2023-05-21T11:57:01.049Z,26.47
2023-05-21T11:58:03.288Z,26.24
2023-05-21T11:59:05.368Z,26.56
2023-05-21T12:00:14.259Z,26.10
2023-05-21T12:01:26.571Z,26.51
2023-05-21T12:02:33.208Z,26.43
2023-05-21T12:03:35.673Z,26.24
2023-05-21T12:04:37.739Z,26.30
2023-05-21T12:05:47.401Z,26.34
2023-05-21T12:06:50.757Z,26.36
2023-05-21T12:07:54.618Z,26.24
2023-05-21T12:08:58.519Z,26.37
2023-05-21T12:10:00.999Z,26.86
2023-05-21T12:11:02.954Z,26.70
2023-05-21T12:12:06.213Z,26.56
2023-05-21T12:13:08.074Z,26.57
2023-05-21T12:14:11.406Z,26.90
2023-05-21T12:15:13.683Z,26.65
2023-05-21T12:16:15.712Z,26.19
2023-05-21T12:17:22.485Z,26.96
2023-05-21T12:18:26.493Z,26.75
2023-05-21T12:19:29.046Z,26.13
2023-05-21T12:20:31.171Z,26.74
2023-05-21T12:21:33.696Z,26.35
2023-05-21T12:22:35.546Z,26.79
2023-05-21T12:23:37.505Z,26.68
2023-05-21T12:24:39.456Z,26.53
2023-05-21T12:25:41.572Z,26.88
2023-05-21T12:26:46.048Z,26.28
2023-05-21T12:27:51.014Z,26.29
2023-05-21T12:28:57.091Z,26.77
2023-05-21T12:29:59.203Z,26.71
2023-05-21T12:31:01.443Z,26.27
2023-05-21T12:32:05.466Z,26.18
2023-05-21T12:33:07.408Z,26.42
2023-05-21T12:34:10.896Z,26.53
2023-05-21T12:35:23.812Z,26.16
2023-05-21T12:36:31.974Z,26.55
2023-05-21T12:37:35.841Z,26.58
2023-05-21T12:38:37.938Z,26.27
2023-05-21T12:39:41.320Z,26.88
2023-05-21T12:40:45.419Z,26.42
2023-05-21T12:41:47.385Z,26.64
2023-05-21T12:42:49.831Z,26.68
2023-05-21T12:43:51.727Z,26.20
2023-05-21T12:44:54.416Z,26.61
2023-05-21T12:45:56.903Z,26.95
2023-05-21T12:46:59.699Z,26.84
2023-05-21T12:48:02.147Z,26.31
2023-05-21T12:49:04.353Z,26.74
2023-05-21T12:50:14.153Z,26.37
2023-05-21T12:51:16.084Z,26.43
2023-05-21T12:52:21.218Z,26.43
2023-05-21T12:53:23.061Z,26.61
2023-05-21T12:54:33.199Z,26.54
2023-05-21T12:55:35.895Z,26.47
2023-05-21T12:56:47.054Z,26.37
2023-05-21T12:57:48.950Z,26.80
2023-05-21T12:58:50.923Z,26.81
2023-05-21T13:00:04.597Z,26.29
2023-05-21T13:01:12.740Z,27.08
2023-05-21T13:02:35.088Z,26.61
2023-05-21T13:03:42.315Z,26.35
2023-05-21T13:04:44.434Z,26.50
2023-05-21T13:05:46.830Z,27.05
2023-05-21T13:06:48.649Z,26.50
2023-05-21T13:07:51.704Z,26.83
2023-05-21T13:08:55.813Z,26.32
2023-05-21T13:09:58.556Z,27.01
2023-05-21T13:11:02.336Z,26.56
2023-05-21T13:12:04.310Z,26.60
2023-05-21T13:13:06.203Z,26.98
2023-05-21T13:14:08.010Z,26.72
2023-05-21T13:15:10.586Z,26.19
2023-05-21T13:16:12.428Z,26.33
2023-05-21T13:17:14.976Z,26.49
2023-05-21T13:18:17.011Z,26.82
2023-05-21T13:19:18.927Z,26.85
2023-05-21T13:20:21.822Z,26.32
2023-05-21T13:21:24.047Z,26.76
2023-05-21T13:22:25.861Z,26.54
2023-05-21T13:23:27.673Z,26.74
2023-05-21T13:24:29.550Z,26.86
2023-05-21T13:25:32.791Z,26.93
2023-05-21T13:26:34.624Z,26.90
2023-05-21T13:27:36.684Z,26.59
2023-05-21T13:28:39.216Z,26.95
2023-05-21T13:29:42.063Z,27.01
2023-05-21T13:30:43.957Z,26.92
2023-05-21T13:31:45.839Z,26.22
2023-05-21T13:32:48.292Z,26.32
2023-05-21T13:33:50.604Z,26.21
2023-05-21T13:34:52.486Z,26.60
2023-05-21T13:35:54.308Z,26.53
2023-05-21T13:36:56.156Z,26.80
2023-05-21T13:37:58.013Z,26.37
2023-05-21T13:38:59.957Z,26.59
2023-05-21T13:40:11.009Z,27.13
2023-05-21T13:41:12.942Z,26.46
2023-05-21T13:42:14.890Z,26.96
2023-05-21T13:43:16.953Z,26.34
2023-05-21T13:44:18.880Z,26.87
2023-05-21T13:45:21.507Z,26.73
2023-05-21T13:46:23.617Z,27.13
2023-05-21T13:47:25.686Z,26.71
2023-05-21T13:48:27.518Z,26.53
2023-05-21T13:49:29.394Z,26.97
2023-05-21T13:50:31.293Z,27.15
2023-05-21T13:51:39.133Z,26.91
2023-05-21T13:52:41.690Z,26.93
2023-05-21T13:53:44.094Z,26.70